Melton Mowbray, United Kingdom
Current Conditions -  °F | °C
As of 8:50 AM on Friday 19 Dec 2014 (Local Time) from EGNX Reporting Station
Clear Clear  
Wind Chill: 34°   Ceiling: Unl
Heat Index: 43°   Visibility: 6mi
Dew Point: 34°   Wind: 23mph
Humidity: 70%   Direction: 250°WSW
Pressure: 29.83"   Gusts: NA
Location:  52.76°N, 0.89°W
Report Text: EGNX 190850Z 25020KT CAVOK 06/01 Q1010
Loading
Personal Weather Stations






























Interactive Weather Map New forecast layout! Learn more

10-Day Weather Forecast

Advertisements
Track Severe Weather on mobile